sensor_id;sensor_type;location;lat;lon;timestamp;temperature;humidity
50969;DHT22;36982;51.474;7.228;2022-12-18T00:02:14;-3.70;99.90
50969;DHT22;36982;51.474;7.228;2022-12-18T00:04:40;-3.70;99.90
50969;DHT22;36982;51.474;7.228;2022-12-18T00:07:06;-3.70;99.90
50969;DHT22;36982;51.474;7.228;2022-12-18T00:09:32;-3.80;99.90
50969;DHT22;36982;51.474;7.228;2022-12-18T00:11:57;-3.80;99.90
50969;DHT22;36982;51.474;7.228;2022-12-18T00:14:23;-3.80;99.90
50969;DHT22;36982;51.474;7.228;2022-12-18T00:16:48;-3.80;99.90
50969;DHT22;36982;51.474;7.228;2022-12-18T00:19:14;-3.60;99.90
50969;DHT22;36982;51.474;7.228;2022-12-18T00:21:41;-3.60;99.90
50969;DHT22;36982;51.474;7.228;2022-12-18T00:24:07;-3.70;99.90
50969;DHT22;36982;51.474;7.228;2022-12-18T00:26:35;-3.50;99.90
50969;DHT22;36982;51.474;7.228;2022-12-18T00:29:05;-3.80;99.90
50969;DHT22;36982;51.474;7.228;2022-12-18T00:31:31;-3.80;99.90
50969;DHT22;36982;51.474;7.228;2022-12-18T00:33:57;-3.80;99.90
50969;DHT22;36982;51.474;7.228;2022-12-18T00:36:25;-3.90;99.90
50969;DHT22;36982;51.474;7.228;2022-12-18T00:38:53;-3.90;99.90
50969;DHT22;36982;51.474;7.228;2022-12-18T00:41:19;-3.80;99.90
50969;DHT22;36982;51.474;7.228;2022-12-18T00:44:04;-3.70;99.90
50969;DHT22;36982;51.474;7.228;2022-12-18T00:46:30;-3.70;99.90
50969;DHT22;36982;51.474;7.228;2022-12-18T00:48:56;-3.70;99.90
50969;DHT22;36982;51.474;7.228;2022-12-18T00:51:21;-3.70;99.90
50969;DHT22;36982;51.474;7.228;2022-12-18T00:53:47;-3.70;99.90
50969;DHT22;36982;51.474;7.228;2022-12-18T00:56:12;-3.70;99.90
50969;DHT22;36982;51.474;7.228;2022-12-18T00:58:38;-3.70;99.90
50969;DHT22;36982;51.474;7.228;2022-12-18T01:01:05;-3.70;99.90
50969;DHT22;36982;51.474;7.228;2022-12-18T01:03:30;-3.70;99.90
50969;DHT22;36982;51.474;7.228;2022-12-18T01:05:56;-3.70;99.90
50969;DHT22;36982;51.474;7.228;2022-12-18T01:08:22;-3.70;99.90
50969;DHT22;36982;51.474;7.228;2022-12-18T01:10:48;-3.60;99.90
50969;DHT22;36982;51.474;7.228;2022-12-18T01:13:13;-3.60;99.90
50969;DHT22;36982;51.474;7.228;2022-12-18T01:15:39;-3.60;99.90
50969;DHT22;36982;51.474;7.228;2022-12-18T01:18:06;-3.60;99.90
50969;DHT22;36982;51.474;7.228;2022-12-18T01:20:31;-3.60;99.90
50969;DHT22;36982;51.474;7.228;2022-12-18T01:22:57;-3.60;99.90
50969;DHT22;36982;51.474;7.228;2022-12-18T01:25:23;-3.60;99.90
50969;DHT22;36982;51.474;7.228;2022-12-18T01:27:48;-3.40;99.90
50969;DHT22;36982;51.474;7.228;2022-12-18T01:30:14;-3.40;99.90
50969;DHT22;36982;51.474;7.228;2022-12-18T01:32:40;-3.40;99.90
50969;DHT22;36982;51.474;7.228;2022-12-18T01:35:07;-3.40;99.90
50969;DHT22;36982;51.474;7.228;2022-12-18T01:37:32;-3.40;99.90
50969;DHT22;36982;51.474;7.228;2022-12-18T01:39:58;-3.30;99.90
50969;DHT22;36982;51.474;7.228;2022-12-18T01:42:23;-3.30;99.90
50969;DHT22;36982;51.474;7.228;2022-12-18T01:49:51;-3.30;99.90
50969;DHT22;36982;51.474;7.228;2022-12-18T01:52:17;-3.20;99.90
50969;DHT22;36982;51.474;7.228;2022-12-18T01:54:44;-3.30;99.90
50969;DHT22;36982;51.474;7.228;2022-12-18T01:57:10;-3.20;99.90
50969;DHT22;36982;51.474;7.228;2022-12-18T01:59:36;-3.20;99.90
50969;DHT22;36982;51.474;7.228;2022-12-18T02:02:03;-3.20;99.90
50969;DHT22;36982;51.474;7.228;2022-12-18T02:04:29;-3.20;99.90
50969;DHT22;36982;51.474;7.228;2022-12-18T02:07:17;-3.20;99.90
50969;DHT22;36982;51.474;7.228;2022-12-18T02:10:01;-3.10;99.90
50969;DHT22;36982;51.474;7.228;2022-12-18T02:12:53;-3.10;99.90
50969;DHT22;36982;51.474;7.228;2022-12-18T02:18:21;-3.10;99.90
50969;DHT22;36982;51.474;7.228;2022-12-18T02:26:45;-3.00;99.90
50969;DHT22;36982;51.474;7.228;2022-12-18T02:29:56;-3.00;99.90
50969;DHT22;36982;51.474;7.228;2022-12-18T02:32:07;-3.00;99.90
50969;DHT22;36982;51.474;7.228;2022-12-18T02:34:37;-3.00;99.90
50969;DHT22;36982;51.474;7.228;2022-12-18T02:37:06;-3.10;99.90
50969;DHT22;36982;51.474;7.228;2022-12-18T02:39:35;-3.10;99.90
50969;DHT22;36982;51.474;7.228;2022-12-18T02:42:02;-3.00;99.90
50969;DHT22;36982;51.474;7.228;2022-12-18T02:44:33;-2.90;99.90
50969;DHT22;36982;51.474;7.228;2022-12-18T02:46:59;-2.80;99.90
50969;DHT22;36982;51.474;7.228;2022-12-18T02:55:11;-2.50;99.90
50969;DHT22;36982;51.474;7.228;2022-12-18T02:57:54;-2.40;99.90
50969;DHT22;36982;51.474;7.228;2022-12-18T03:00:28;-2.40;99.90
50969;DHT22;36982;51.474;7.228;2022-12-18T03:05:50;-2.20;99.90
50969;DHT22;36982;51.474;7.228;2022-12-18T03:08:26;-2.20;99.90
50969;DHT22;36982;51.474;7.228;2022-12-18T03:11:05;-2.10;99.90
50969;DHT22;36982;51.474;7.228;2022-12-18T03:13:43;-2.10;99.90
50969;DHT22;36982;51.474;7.228;2022-12-18T03:16:11;-2.00;99.90
50969;DHT22;36982;51.474;7.228;2022-12-18T03:18:59;-2.00;99.90
50969;DHT22;36982;51.474;7.228;2022-12-18T03:21:29;-2.00;99.90
50969;DHT22;36982;51.474;7.228;2022-12-18T03:23:57;-1.90;99.90
50969;DHT22;36982;51.474;7.228;2022-12-18T03:26:25;-2.00;99.90
50969;DHT22;36982;51.474;7.228;2022-12-18T03:28:57;-2.00;99.90
50969;DHT22;36982;51.474;7.228;2022-12-18T03:31:26;-2.00;99.90
50969;DHT22;36982;51.474;7.228;2022-12-18T03:33:57;-2.00;99.90
50969;DHT22;36982;51.474;7.228;2022-12-18T03:36:24;-2.10;99.90
50969;DHT22;36982;51.474;7.228;2022-12-18T03:38:50;-2.10;99.90
50969;DHT22;36982;51.474;7.228;2022-12-18T03:41:32;-2.10;99.90
50969;DHT22;36982;51.474;7.228;2022-12-18T03:49:23;-2.10;99.90
50969;DHT22;36982;51.474;7.228;2022-12-18T03:51:55;-2.10;99.90
50969;DHT22;36982;51.474;7.228;2022-12-18T03:54:25;-2.10;99.90
50969;DHT22;36982;51.474;7.228;2022-12-18T03:56:59;-2.20;99.90
50969;DHT22;36982;51.474;7.228;2022-12-18T03:59:27;-2.30;99.90
50969;DHT22;36982;51.474;7.228;2022-12-18T04:01:55;-2.20;99.90
50969;DHT22;36982;51.474;7.228;2022-12-18T04:04:24;-2.20;99.90
50969;DHT22;36982;51.474;7.228;2022-12-18T04:06:51;-2.10;99.90
50969;DHT22;36982;51.474;7.228;2022-12-18T04:09:18;-2.20;99.90
50969;DHT22;36982;51.474;7.228;2022-12-18T04:11:45;-2.20;99.90
50969;DHT22;36982;51.474;7.228;2022-12-18T04:14:11;-2.30;99.90
50969;DHT22;36982;51.474;7.228;2022-12-18T04:16:37;-2.30;99.90
50969;DHT22;36982;51.474;7.228;2022-12-18T04:19:03;-2.30;99.90
50969;DHT22;36982;51.474;7.228;2022-12-18T04:21:29;-2.30;99.90
50969;DHT22;36982;51.474;7.228;2022-12-18T04:23:54;-2.30;99.90
50969;DHT22;36982;51.474;7.228;2022-12-18T04:26:20;-2.30;99.90
50969;DHT22;36982;51.474;7.228;2022-12-18T04:28:46;-2.30;99.90
50969;DHT22;36982;51.474;7.228;2022-12-18T04:31:12;-2.30;99.90
50969;DHT22;36982;51.474;7.228;2022-12-18T04:33:38;-2.40;99.90
50969;DHT22;36982;51.474;7.228;2022-12-18T04:36:04;-2.40;99.90
50969;DHT22;36982;51.474;7.228;2022-12-18T04:38:30;-2.40;99.90
50969;DHT22;36982;51.474;7.228;2022-12-18T04:40:55;-2.50;99.90
50969;DHT22;36982;51.474;7.228;2022-12-18T04:43:21;-2.50;99.90
50969;DHT22;36982;51.474;7.228;2022-12-18T04:45:46;-2.50;99.90
50969;DHT22;36982;51.474;7.228;2022-12-18T04:48:12;-2.60;99.90
50969;DHT22;36982;51.474;7.228;2022-12-18T04:50:37;-2.60;99.90
50969;DHT22;36982;51.474;7.228;2022-12-18T04:53:03;-2.60;99.90
50969;DHT22;36982;51.474;7.228;2022-12-18T04:55:29;-2.60;99.90
50969;DHT22;36982;51.474;7.228;2022-12-18T04:57:54;-2.50;99.90
50969;DHT22;36982;51.474;7.228;2022-12-18T05:00:20;-2.50;99.90
50969;DHT22;36982;51.474;7.228;2022-12-18T05:02:45;-2.50;99.90
50969;DHT22;36982;51.474;7.228;2022-12-18T05:05:11;-2.50;99.90
50969;DHT22;36982;51.474;7.228;2022-12-18T05:07:37;-2.50;99.90
50969;DHT22;36982;51.474;7.228;2022-12-18T05:10:03;-2.50;99.90
50969;DHT22;36982;51.474;7.228;2022-12-18T05:12:32;-2.40;99.90
50969;DHT22;36982;51.474;7.228;2022-12-18T05:14:58;-2.40;99.90
50969;DHT22;36982;51.474;7.228;2022-12-18T05:17:23;-2.40;99.90
50969;DHT22;36982;51.474;7.228;2022-12-18T05:19:49;-2.40;99.90
50969;DHT22;36982;51.474;7.228;2022-12-18T05:22:14;-2.40;99.90
50969;DHT22;36982;51.474;7.228;2022-12-18T05:24:40;-2.40;99.90
50969;DHT22;36982;51.474;7.228;2022-12-18T05:27:06;-2.50;99.90
50969;DHT22;36982;51.474;7.228;2022-12-18T05:29:31;-2.50;99.90
50969;DHT22;36982;51.474;7.228;2022-12-18T05:31:57;-2.60;99.90
50969;DHT22;36982;51.474;7.228;2022-12-18T05:34:22;-2.60;99.90
50969;DHT22;36982;51.474;7.228;2022-12-18T05:36:48;-2.60;99.90
50969;DHT22;36982;51.474;7.228;2022-12-18T05:39:14;-2.60;99.90
50969;DHT22;36982;51.474;7.228;2022-12-18T05:41:39;-2.60;99.90
50969;DHT22;36982;51.474;7.228;2022-12-18T05:44:05;-2.60;99.90
50969;DHT22;36982;51.474;7.228;2022-12-18T05:46:30;-2.60;99.90
50969;DHT22;36982;51.474;7.228;2022-12-18T05:48:59;-2.60;99.90
50969;DHT22;36982;51.474;7.228;2022-12-18T05:51:25;-2.60;99.90
50969;DHT22;36982;51.474;7.228;2022-12-18T05:53:51;-2.50;99.90
50969;DHT22;36982;51.474;7.228;2022-12-18T05:56:19;-2.50;99.90
50969;DHT22;36982;51.474;7.228;2022-12-18T05:58:45;-2.60;99.90
50969;DHT22;36982;51.474;7.228;2022-12-18T06:01:15;-2.60;99.90
50969;DHT22;36982;51.474;7.228;2022-12-18T06:03:42;-2.70;99.90
50969;DHT22;36982;51.474;7.228;2022-12-18T06:08:48;-2.80;99.90
50969;DHT22;36982;51.474;7.228;2022-12-18T06:11:17;-2.80;99.90
50969;DHT22;36982;51.474;7.228;2022-12-18T06:13:42;-2.90;99.90
50969;DHT22;36982;51.474;7.228;2022-12-18T06:16:08;-3.00;99.90
50969;DHT22;36982;51.474;7.228;2022-12-18T06:18:34;-3.00;99.90
50969;DHT22;36982;51.474;7.228;2022-12-18T06:21:02;-3.20;99.90
50969;DHT22;36982;51.474;7.228;2022-12-18T06:23:28;-3.30;99.90
50969;DHT22;36982;51.474;7.228;2022-12-18T06:25:53;-3.10;99.90
50969;DHT22;36982;51.474;7.228;2022-12-18T06:28:19;-3.10;99.90
50969;DHT22;36982;51.474;7.228;2022-12-18T06:30:50;-3.20;99.90
50969;DHT22;36982;51.474;7.228;2022-12-18T06:33:16;-3.40;99.90
50969;DHT22;36982;51.474;7.228;2022-12-18T06:35:42;-3.50;99.90
50969;DHT22;36982;51.474;7.228;2022-12-18T06:38:07;-3.40;99.90
50969;DHT22;36982;51.474;7.228;2022-12-18T06:40:33;-3.40;99.90
50969;DHT22;36982;51.474;7.228;2022-12-18T06:42:59;-3.40;99.90
50969;DHT22;36982;51.474;7.228;2022-12-18T06:45:24;-3.40;99.90
50969;DHT22;36982;51.474;7.228;2022-12-18T06:47:50;-3.40;99.90
50969;DHT22;36982;51.474;7.228;2022-12-18T06:50:16;-3.50;99.90
50969;DHT22;36982;51.474;7.228;2022-12-18T06:52:42;-3.40;99.90
50969;DHT22;36982;51.474;7.228;2022-12-18T06:55:10;-3.60;99.90
50969;DHT22;36982;51.474;7.228;2022-12-18T06:57:36;-3.60;99.90
50969;DHT22;36982;51.474;7.228;2022-12-18T07:00:02;-3.70;99.90
50969;DHT22;36982;51.474;7.228;2022-12-18T07:02:28;-3.80;99.90
50969;DHT22;36982;51.474;7.228;2022-12-18T07:04:54;-3.80;99.90
50969;DHT22;36982;51.474;7.228;2022-12-18T07:07:19;-3.80;99.90
50969;DHT22;36982;51.474;7.228;2022-12-18T07:09:45;-3.90;99.90
50969;DHT22;36982;51.474;7.228;2022-12-18T07:12:10;-3.90;99.90
50969;DHT22;36982;51.474;7.228;2022-12-18T07:14:36;-3.90;99.90
50969;DHT22;36982;51.474;7.228;2022-12-18T07:17:01;-4.00;99.90
50969;DHT22;36982;51.474;7.228;2022-12-18T07:19:27;-4.10;99.90
50969;DHT22;36982;51.474;7.228;2022-12-18T07:21:52;-4.10;99.90
50969;DHT22;36982;51.474;7.228;2022-12-18T07:24:18;-4.10;99.90
50969;DHT22;36982;51.474;7.228;2022-12-18T07:26:46;-4.10;99.90
50969;DHT22;36982;51.474;7.228;2022-12-18T07:29:11;-4.10;99.90
50969;DHT22;36982;51.474;7.228;2022-12-18T07:31:37;-4.10;99.90
50969;DHT22;36982;51.474;7.228;2022-12-18T07:34:02;-4.10;99.90
50969;DHT22;36982;51.474;7.228;2022-12-18T07:36:28;-4.10;99.90
50969;DHT22;36982;51.474;7.228;2022-12-18T07:38:53;-4.00;99.90
50969;DHT22;36982;51.474;7.228;2022-12-18T07:41:19;-4.00;99.90
50969;DHT22;36982;51.474;7.228;2022-12-18T07:43:46;-4.00;99.90
50969;DHT22;36982;51.474;7.228;2022-12-18T07:46:12;-3.80;99.90
50969;DHT22;36982;51.474;7.228;2022-12-18T07:48:40;-3.70;99.90
50969;DHT22;36982;51.474;7.228;2022-12-18T07:51:07;-3.80;99.90
50969;DHT22;36982;51.474;7.228;2022-12-18T07:53:34;-3.80;99.90
50969;DHT22;36982;51.474;7.228;2022-12-18T07:56:02;-3.70;99.90
50969;DHT22;36982;51.474;7.228;2022-12-18T07:58:29;-3.80;99.90
50969;DHT22;36982;51.474;7.228;2022-12-18T08:01:01;-3.80;99.90
50969;DHT22;36982;51.474;7.228;2022-12-18T08:03:27;-3.80;99.90
50969;DHT22;36982;51.474;7.228;2022-12-18T08:05:52;-3.60;99.90
50969;DHT22;36982;51.474;7.228;2022-12-18T08:08:18;-3.60;99.90
50969;DHT22;36982;51.474;7.228;2022-12-18T08:10:43;-3.60;99.90
50969;DHT22;36982;51.474;7.228;2022-12-18T08:13:09;-3.50;99.90
50969;DHT22;36982;51.474;7.228;2022-12-18T08:15:34;-3.50;99.90
50969;DHT22;36982;51.474;7.228;2022-12-18T08:18:00;-3.50;99.90
50969;DHT22;36982;51.474;7.228;2022-12-18T08:20:25;-3.40;99.90
50969;DHT22;36982;51.474;7.228;2022-12-18T08:22:51;-3.40;99.90
50969;DHT22;36982;51.474;7.228;2022-12-18T08:25:16;-3.40;99.90
50969;DHT22;36982;51.474;7.228;2022-12-18T08:27:42;-3.40;99.90
50969;DHT22;36982;51.474;7.228;2022-12-18T08:30:08;-3.40;99.90
50969;DHT22;36982;51.474;7.228;2022-12-18T08:32:34;-3.40;99.90
50969;DHT22;36982;51.474;7.228;2022-12-18T08:34:59;-3.40;99.90
50969;DHT22;36982;51.474;7.228;2022-12-18T08:37:25;-3.40;99.90
50969;DHT22;36982;51.474;7.228;2022-12-18T08:39:51;-3.40;99.90
50969;DHT22;36982;51.474;7.228;2022-12-18T08:42:16;-3.40;99.90
50969;DHT22;36982;51.474;7.228;2022-12-18T08:45:00;-3.20;99.90
50969;DHT22;36982;51.474;7.228;2022-12-18T08:47:26;-3.20;99.90
50969;DHT22;36982;51.474;7.228;2022-12-18T08:49:52;-3.10;99.90
50969;DHT22;36982;51.474;7.228;2022-12-18T08:52:20;-3.00;99.90
50969;DHT22;36982;51.474;7.228;2022-12-18T08:54:45;-2.80;99.90
50969;DHT22;36982;51.474;7.228;2022-12-18T08:57:11;-2.70;99.90
50969;DHT22;36982;51.474;7.228;2022-12-18T08:59:36;-2.70;99.90
50969;DHT22;36982;51.474;7.228;2022-12-18T09:02:02;-2.50;99.90
50969;DHT22;36982;51.474;7.228;2022-12-18T09:04:27;-2.50;99.90
50969;DHT22;36982;51.474;7.228;2022-12-18T09:06:53;-2.50;99.90
50969;DHT22;36982;51.474;7.228;2022-12-18T09:09:19;-2.50;99.90
50969;DHT22;36982;51.474;7.228;2022-12-18T09:11:44;-2.40;99.90
50969;DHT22;36982;51.474;7.228;2022-12-18T09:14:10;-2.30;99.90
50969;DHT22;36982;51.474;7.228;2022-12-18T09:16:36;-1.90;99.90
50969;DHT22;36982;51.474;7.228;2022-12-18T09:19:03;-1.90;99.90
50969;DHT22;36982;51.474;7.228;2022-12-18T09:21:34;-1.60;99.90
50969;DHT22;36982;51.474;7.228;2022-12-18T09:24:04;-1.40;99.90
50969;DHT22;36982;51.474;7.228;2022-12-18T09:26:30;-1.20;99.90
50969;DHT22;36982;51.474;7.228;2022-12-18T09:28:56;-0.90;99.90
50969;DHT22;36982;51.474;7.228;2022-12-18T09:31:23;-0.70;99.90
50969;DHT22;36982;51.474;7.228;2022-12-18T09:33:49;-0.50;99.90
50969;DHT22;36982;51.474;7.228;2022-12-18T09:36:16;-0.30;99.90
50969;DHT22;36982;51.474;7.228;2022-12-18T09:38:42;-0.20;99.90
50969;DHT22;36982;51.474;7.228;2022-12-18T09:44:26;0.00;99.90
50969;DHT22;36982;51.474;7.228;2022-12-18T09:49:26;0.20;99.90
50969;DHT22;36982;51.474;7.228;2022-12-18T09:52:04;0.30;99.90
50969;DHT22;36982;51.474;7.228;2022-12-18T09:54:38;0.40;99.90
50969;DHT22;36982;51.474;7.228;2022-12-18T09:57:20;0.50;99.90
50969;DHT22;36982;51.474;7.228;2022-12-18T09:59:51;0.50;99.90
50969;DHT22;36982;51.474;7.228;2022-12-18T10:02:23;0.60;99.90
50969;DHT22;36982;51.474;7.228;2022-12-18T10:14:20;1.20;99.90
50969;DHT22;36982;51.474;7.228;2022-12-18T10:27:26;1.40;99.90
50969;DHT22;36982;51.474;7.228;2022-12-18T10:29:52;1.50;99.90
50969;DHT22;36982;51.474;7.228;2022-12-18T10:32:25;1.60;99.90
50969;DHT22;36982;51.474;7.228;2022-12-18T10:34:53;1.70;99.90
50969;DHT22;36982;51.474;7.228;2022-12-18T10:37:22;1.80;99.90
50969;DHT22;36982;51.474;7.228;2022-12-18T10:40:08;2.00;99.90
50969;DHT22;36982;51.474;7.228;2022-12-18T10:42:34;2.10;99.90
50969;DHT22;36982;51.474;7.228;2022-12-18T10:45:12;2.10;99.90
50969;DHT22;36982;51.474;7.228;2022-12-18T10:47:49;2.20;99.90
50969;DHT22;36982;51.474;7.228;2022-12-18T10:50:32;2.20;99.90
50969;DHT22;36982;51.474;7.228;2022-12-18T10:53:03;2.20;99.90
50969;DHT22;36982;51.474;7.228;2022-12-18T10:55:38;2.30;99.90
50969;DHT22;36982;51.474;7.228;2022-12-18T11:00:45;2.50;99.90
50969;DHT22;36982;51.474;7.228;2022-12-18T11:03:32;2.60;99.90
50969;DHT22;36982;51.474;7.228;2022-12-18T11:06:09;2.60;99.90
50969;DHT22;36982;51.474;7.228;2022-12-18T11:08:36;2.70;99.80
50969;DHT22;36982;51.474;7.228;2022-12-18T11:11:02;2.80;99.70
50969;DHT22;36982;51.474;7.228;2022-12-18T11:13:30;2.90;99.50
50969;DHT22;36982;51.474;7.228;2022-12-18T11:15:57;2.90;99.60
50969;DHT22;36982;51.474;7.228;2022-12-18T11:18:32;3.00;99.30
50969;DHT22;36982;51.474;7.228;2022-12-18T11:21:09;3.10;99.30
50969;DHT22;36982;51.474;7.228;2022-12-18T11:23:37;3.20;99.20
50969;DHT22;36982;51.474;7.228;2022-12-18T11:26:08;3.20;99.10
50969;DHT22;36982;51.474;7.228;2022-12-18T11:36:22;3.50;98.70
50969;DHT22;36982;51.474;7.228;2022-12-18T11:38:50;3.50;98.70
50969;DHT22;36982;51.474;7.228;2022-12-18T11:41:56;3.50;98.90
50969;DHT22;36982;51.474;7.228;2022-12-18T11:47:41;3.30;99.00
50969;DHT22;36982;51.474;7.228;2022-12-18T11:50:19;3.30;98.30
50969;DHT22;36982;51.474;7.228;2022-12-18T11:52:47;3.10;98.90
50969;DHT22;36982;51.474;7.228;2022-12-18T11:58:18;3.20;99.10
50969;DHT22;36982;51.474;7.228;2022-12-18T12:01:22;3.20;98.70
50969;DHT22;36982;51.474;7.228;2022-12-18T12:06:59;3.40;98.40
50969;DHT22;36982;51.474;7.228;2022-12-18T12:09:31;3.50;98.40
50969;DHT22;36982;51.474;7.228;2022-12-18T12:12:26;3.60;98.40
50969;DHT22;36982;51.474;7.228;2022-12-18T12:15:14;3.70;98.20
50969;DHT22;36982;51.474;7.228;2022-12-18T12:18:05;3.70;98.20
50969;DHT22;36982;51.474;7.228;2022-12-18T12:23:26;3.80;97.50
50969;DHT22;36982;51.474;7.228;2022-12-18T12:26:02;3.70;97.50
50969;DHT22;36982;51.474;7.228;2022-12-18T12:32:05;3.70;97.40
50969;DHT22;36982;51.474;7.228;2022-12-18T12:34:34;3.70;97.90
50969;DHT22;36982;51.474;7.228;2022-12-18T12:39:36;3.90;96.70
50969;DHT22;36982;51.474;7.228;2022-12-18T12:42:04;3.80;96.90
50969;DHT22;36982;51.474;7.228;2022-12-18T12:44:55;3.70;97.10
50969;DHT22;36982;51.474;7.228;2022-12-18T12:47:27;3.80;96.90
50969;DHT22;36982;51.474;7.228;2022-12-18T12:49:54;3.90;97.10
50969;DHT22;36982;51.474;7.228;2022-12-18T12:52:37;4.00;96.70
50969;DHT22;36982;51.474;7.228;2022-12-18T12:55:05;4.00;96.70
50969;DHT22;36982;51.474;7.228;2022-12-18T12:57:37;4.10;97.10
50969;DHT22;36982;51.474;7.228;2022-12-18T13:00:10;4.00;97.00
50969;DHT22;36982;51.474;7.228;2022-12-18T13:02:54;3.90;96.80
50969;DHT22;36982;51.474;7.228;2022-12-18T13:05:43;3.90;97.10
50969;DHT22;36982;51.474;7.228;2022-12-18T13:08:21;3.90;97.80
50969;DHT22;36982;51.474;7.228;2022-12-18T13:10:47;4.00;97.50
50969;DHT22;36982;51.474;7.228;2022-12-18T13:16:35;3.90;97.30
50969;DHT22;36982;51.474;7.228;2022-12-18T13:19:03;3.90;97.00
50969;DHT22;36982;51.474;7.228;2022-12-18T13:21:32;4.00;97.30
50969;DHT22;36982;51.474;7.228;2022-12-18T13:24:22;4.00;97.20
50969;DHT22;36982;51.474;7.228;2022-12-18T13:26:48;4.00;97.00
50969;DHT22;36982;51.474;7.228;2022-12-18T13:29:41;4.10;97.50
50969;DHT22;36982;51.474;7.228;2022-12-18T13:32:22;4.00;97.30
50969;DHT22;36982;51.474;7.228;2022-12-18T13:34:48;4.00;97.00
50969;DHT22;36982;51.474;7.228;2022-12-18T13:37:42;3.80;97.20
50969;DHT22;36982;51.474;7.228;2022-12-18T13:48:32;3.50;97.80
50969;DHT22;36982;51.474;7.228;2022-12-18T13:51:07;3.50;98.30
50969;DHT22;36982;51.474;7.228;2022-12-18T13:56:03;3.20;98.70
50969;DHT22;36982;51.474;7.228;2022-12-18T13:58:29;3.20;99.20
50969;DHT22;36982;51.474;7.228;2022-12-18T14:00:55;3.10;98.80
50969;DHT22;36982;51.474;7.228;2022-12-18T14:03:23;3.10;99.10
50969;DHT22;36982;51.474;7.228;2022-12-18T14:06:01;3.20;98.90
50969;DHT22;36982;51.474;7.228;2022-12-18T14:08:34;3.00;98.90
50969;DHT22;36982;51.474;7.228;2022-12-18T14:11:01;3.00;99.10
50969;DHT22;36982;51.474;7.228;2022-12-18T14:13:36;3.00;99.40
50969;DHT22;36982;51.474;7.228;2022-12-18T14:16:04;2.80;99.60
50969;DHT22;36982;51.474;7.228;2022-12-18T14:18:52;2.80;99.80
50969;DHT22;36982;51.474;7.228;2022-12-18T14:21:23;2.60;99.90
50969;DHT22;36982;51.474;7.228;2022-12-18T14:24:13;2.60;99.90
50969;DHT22;36982;51.474;7.228;2022-12-18T14:26:54;2.70;99.90
50969;DHT22;36982;51.474;7.228;2022-12-18T14:29:43;2.60;99.90
50969;DHT22;36982;51.474;7.228;2022-12-18T14:32:15;2.60;99.90
50969;DHT22;36982;51.474;7.228;2022-12-18T14:34:48;2.60;99.90
50969;DHT22;36982;51.474;7.228;2022-12-18T14:37:17;2.50;99.90
50969;DHT22;36982;51.474;7.228;2022-12-18T14:39:57;2.50;99.90
50969;DHT22;36982;51.474;7.228;2022-12-18T14:42:24;2.40;99.90
50969;DHT22;36982;51.474;7.228;2022-12-18T14:47:58;2.30;99.90
50969;DHT22;36982;51.474;7.228;2022-12-18T14:50:24;2.30;99.90
50969;DHT22;36982;51.474;7.228;2022-12-18T14:52:50;2.30;99.90
50969;DHT22;36982;51.474;7.228;2022-12-18T14:55:20;2.20;99.90
50969;DHT22;36982;51.474;7.228;2022-12-18T14:57:50;2.20;99.90
50969;DHT22;36982;51.474;7.228;2022-12-18T15:00:18;2.20;99.90
50969;DHT22;36982;51.474;7.228;2022-12-18T15:02:54;2.30;99.90
50969;DHT22;36982;51.474;7.228;2022-12-18T15:05:24;2.40;99.90
50969;DHT22;36982;51.474;7.228;2022-12-18T15:07:53;2.40;99.90
50969;DHT22;36982;51.474;7.228;2022-12-18T15:10:47;2.50;99.90
50969;DHT22;36982;51.474;7.228;2022-12-18T15:13:23;2.50;99.90
50969;DHT22;36982;51.474;7.228;2022-12-18T15:15:49;2.50;99.90
50969;DHT22;36982;51.474;7.228;2022-12-18T15:18:18;2.50;99.90
50969;DHT22;36982;51.474;7.228;2022-12-18T15:20:53;2.50;99.90
50969;DHT22;36982;51.474;7.228;2022-12-18T15:23:25;2.50;99.90
50969;DHT22;36982;51.474;7.228;2022-12-18T15:26:08;2.30;99.90
50969;DHT22;36982;51.474;7.228;2022-12-18T15:36:25;2.00;99.90
50969;DHT22;36982;51.474;7.228;2022-12-18T15:38:56;2.00;99.90
50969;DHT22;36982;51.474;7.228;2022-12-18T15:41:22;1.90;99.90
50969;DHT22;36982;51.474;7.228;2022-12-18T15:43:51;1.90;99.90
50969;DHT22;36982;51.474;7.228;2022-12-18T15:46:24;1.90;99.90
50969;DHT22;36982;51.474;7.228;2022-12-18T15:48:52;1.90;99.90
50969;DHT22;36982;51.474;7.228;2022-12-18T15:51:18;1.90;99.90
50969;DHT22;36982;51.474;7.228;2022-12-18T15:53:46;2.00;99.90
50969;DHT22;36982;51.474;7.228;2022-12-18T15:56:14;2.00;99.90
50969;DHT22;36982;51.474;7.228;2022-12-18T15:58:59;2.00;99.90
50969;DHT22;36982;51.474;7.228;2022-12-18T16:01:30;2.00;99.90
50969;DHT22;36982;51.474;7.228;2022-12-18T16:03:56;2.00;99.90
50969;DHT22;36982;51.474;7.228;2022-12-18T16:06:22;2.00;99.90
50969;DHT22;36982;51.474;7.228;2022-12-18T16:08:48;1.90;99.90
50969;DHT22;36982;51.474;7.228;2022-12-18T16:13:45;1.80;99.90
50969;DHT22;36982;51.474;7.228;2022-12-18T16:16:11;1.70;99.90
50969;DHT22;36982;51.474;7.228;2022-12-18T16:18:36;1.80;99.90
50969;DHT22;36982;51.474;7.228;2022-12-18T16:21:02;1.70;99.90
50969;DHT22;36982;51.474;7.228;2022-12-18T16:23:28;1.60;99.90
50969;DHT22;36982;51.474;7.228;2022-12-18T16:25:54;1.70;99.90
50969;DHT22;36982;51.474;7.228;2022-12-18T16:28:19;1.70;99.90
50969;DHT22;36982;51.474;7.228;2022-12-18T16:30:45;1.80;99.90
50969;DHT22;36982;51.474;7.228;2022-12-18T16:33:10;1.80;99.90
50969;DHT22;36982;51.474;7.228;2022-12-18T16:35:36;1.80;99.90
50969;DHT22;36982;51.474;7.228;2022-12-18T16:38:02;2.00;99.90
50969;DHT22;36982;51.474;7.228;2022-12-18T16:40:28;2.00;99.90
50969;DHT22;36982;51.474;7.228;2022-12-18T16:42:56;2.10;99.90
50969;DHT22;36982;51.474;7.228;2022-12-18T16:45:22;2.10;99.90
50969;DHT22;36982;51.474;7.228;2022-12-18T16:47:47;2.00;99.90
50969;DHT22;36982;51.474;7.228;2022-12-18T16:50:13;2.00;99.90
50969;DHT22;36982;51.474;7.228;2022-12-18T16:52:39;2.00;99.90
50969;DHT22;36982;51.474;7.228;2022-12-18T16:55:05;2.10;99.90
50969;DHT22;36982;51.474;7.228;2022-12-18T16:57:31;2.00;99.90
50969;DHT22;36982;51.474;7.228;2022-12-18T16:59:56;2.00;99.90
50969;DHT22;36982;51.474;7.228;2022-12-18T17:02:24;2.10;99.90
50969;DHT22;36982;51.474;7.228;2022-12-18T17:04:53;2.10;99.90
50969;DHT22;36982;51.474;7.228;2022-12-18T17:07:19;2.00;99.90
50969;DHT22;36982;51.474;7.228;2022-12-18T17:09:45;2.00;99.90
50969;DHT22;36982;51.474;7.228;2022-12-18T17:12:10;1.70;99.90
50969;DHT22;36982;51.474;7.228;2022-12-18T17:14:36;1.70;99.90
50969;DHT22;36982;51.474;7.228;2022-12-18T17:17:02;1.70;99.90
50969;DHT22;36982;51.474;7.228;2022-12-18T17:19:28;1.80;99.90
50969;DHT22;36982;51.474;7.228;2022-12-18T17:21:53;1.80;99.90
50969;DHT22;36982;51.474;7.228;2022-12-18T17:24:20;1.60;99.90
50969;DHT22;36982;51.474;7.228;2022-12-18T17:26:46;1.60;99.90
50969;DHT22;36982;51.474;7.228;2022-12-18T17:29:18;1.50;99.90
50969;DHT22;36982;51.474;7.228;2022-12-18T17:31:45;1.50;99.90
50969;DHT22;36982;51.474;7.228;2022-12-18T17:34:10;1.50;99.90
50969;DHT22;36982;51.474;7.228;2022-12-18T17:36:37;1.60;99.90
50969;DHT22;36982;51.474;7.228;2022-12-18T17:39:04;1.60;99.90
50969;DHT22;36982;51.474;7.228;2022-12-18T17:41:31;1.60;99.90
50969;DHT22;36982;51.474;7.228;2022-12-18T17:43:58;1.60;99.90